sensor_id;sensor_type;location;lat;lon;timestamp;P1;durP1;ratioP1;P2;durP2;ratioP2
37087;SDS011;23002;52.676;6.432;2022-12-01T00:02:04;46.13;;;13.57;;
37087;SDS011;23002;52.676;6.432;2022-12-01T00:04:32;43.13;;;14.60;;
37087;SDS011;23002;52.676;6.432;2022-12-01T00:06:59;38.25;;;14.38;;
37087;SDS011;23002;52.676;6.432;2022-12-01T00:09:26;39.55;;;14.25;;
37087;SDS011;23002;52.676;6.432;2022-12-01T00:12:13;44.85;;;15.07;;
37087;SDS011;23002;52.676;6.432;2022-12-01T00:14:40;45.05;;;15.70;;
37087;SDS011;23002;52.676;6.432;2022-12-01T00:17:07;49.08;;;14.43;;
37087;SDS011;23002;52.676;6.432;2022-12-01T00:19:34;44.60;;;15.75;;
37087;SDS011;23002;52.676;6.432;2022-12-01T00:22:01;42.55;;;13.90;;
37087;SDS011;23002;52.676;6.432;2022-12-01T00:24:28;49.75;;;15.15;;
37087;SDS011;23002;52.676;6.432;2022-12-01T00:26:55;41.85;;;14.95;;
37087;SDS011;23002;52.676;6.432;2022-12-01T00:29:22;47.22;;;16.48;;
37087;SDS011;23002;52.676;6.432;2022-12-01T00:31:49;42.15;;;15.02;;
37087;SDS011;23002;52.676;6.432;2022-12-01T00:34:20;44.28;;;15.65;;
37087;SDS011;23002;52.676;6.432;2022-12-01T00:36:47;42.35;;;15.50;;
37087;SDS011;23002;52.676;6.432;2022-12-01T00:39:14;45.03;;;14.98;;
37087;SDS011;23002;52.676;6.432;2022-12-01T00:41:41;45.33;;;16.00;;
37087;SDS011;23002;52.676;6.432;2022-12-01T00:44:09;43.65;;;14.10;;
37087;SDS011;23002;52.676;6.432;2022-12-01T00:46:36;50.60;;;16.25;;
37087;SDS011;23002;52.676;6.432;2022-12-01T00:49:03;48.85;;;15.80;;
37087;SDS011;23002;52.676;6.432;2022-12-01T00:51:31;49.42;;;16.85;;
37087;SDS011;23002;52.676;6.432;2022-12-01T00:53:58;41.88;;;14.32;;
37087;SDS011;23002;52.676;6.432;2022-12-01T00:56:25;55.20;;;16.70;;
37087;SDS011;23002;52.676;6.432;2022-12-01T00:58:52;46.95;;;15.48;;
37087;SDS011;23002;52.676;6.432;2022-12-01T01:01:19;52.83;;;15.98;;
37087;SDS011;23002;52.676;6.432;2022-12-01T01:03:46;42.60;;;15.40;;
37087;SDS011;23002;52.676;6.432;2022-12-01T01:06:14;45.97;;;16.52;;
37087;SDS011;23002;52.676;6.432;2022-12-01T01:08:41;50.63;;;16.13;;
37087;SDS011;23002;52.676;6.432;2022-12-01T01:11:08;54.50;;;17.05;;
37087;SDS011;23002;52.676;6.432;2022-12-01T01:13:35;50.15;;;16.90;;
37087;SDS011;23002;52.676;6.432;2022-12-01T01:18:30;59.15;;;17.38;;
37087;SDS011;23002;52.676;6.432;2022-12-01T01:20:58;52.58;;;15.80;;
37087;SDS011;23002;52.676;6.432;2022-12-01T01:23:25;54.83;;;15.60;;
37087;SDS011;23002;52.676;6.432;2022-12-01T01:25:52;48.10;;;16.42;;
37087;SDS011;23002;52.676;6.432;2022-12-01T01:28:19;49.78;;;15.50;;
37087;SDS011;23002;52.676;6.432;2022-12-01T01:30:46;44.00;;;15.43;;
37087;SDS011;23002;52.676;6.432;2022-12-01T01:33:14;45.72;;;16.30;;
37087;SDS011;23002;52.676;6.432;2022-12-01T01:35:41;45.25;;;14.10;;
37087;SDS011;23002;52.676;6.432;2022-12-01T01:38:08;48.53;;;16.20;;
37087;SDS011;23002;52.676;6.432;2022-12-01T01:40:43;45.85;;;14.50;;
37087;SDS011;23002;52.676;6.432;2022-12-01T01:43:16;59.10;;;16.88;;
37087;SDS011;23002;52.676;6.432;2022-12-01T01:45:43;50.10;;;16.00;;
37087;SDS011;23002;52.676;6.432;2022-12-01T01:48:11;50.05;;;15.45;;
37087;SDS011;23002;52.676;6.432;2022-12-01T01:50:39;52.40;;;15.52;;
37087;SDS011;23002;52.676;6.432;2022-12-01T01:53:08;46.80;;;15.93;;
37087;SDS011;23002;52.676;6.432;2022-12-01T01:55:36;55.85;;;16.80;;
37087;SDS011;23002;52.676;6.432;2022-12-01T01:58:06;55.95;;;15.95;;
37087;SDS011;23002;52.676;6.432;2022-12-01T02:00:35;51.85;;;15.93;;
37087;SDS011;23002;52.676;6.432;2022-12-01T02:03:03;53.53;;;16.15;;
37087;SDS011;23002;52.676;6.432;2022-12-01T02:05:31;50.28;;;15.90;;
37087;SDS011;23002;52.676;6.432;2022-12-01T02:08:00;49.33;;;16.73;;
37087;SDS011;23002;52.676;6.432;2022-12-01T02:16:11;47.22;;;15.05;;
37087;SDS011;23002;52.676;6.432;2022-12-01T02:27:04;57.63;;;16.83;;
37087;SDS011;23002;52.676;6.432;2022-12-01T02:37:47;50.85;;;16.05;;
37087;SDS011;23002;52.676;6.432;2022-12-01T02:45:17;52.92;;;15.93;;
37087;SDS011;23002;52.676;6.432;2022-12-01T02:47:46;54.42;;;15.52;;
37087;SDS011;23002;52.676;6.432;2022-12-01T02:50:14;48.95;;;17.10;;
37087;SDS011;23002;52.676;6.432;2022-12-01T02:52:41;54.95;;;15.45;;
37087;SDS011;23002;52.676;6.432;2022-12-01T02:55:09;52.78;;;16.25;;
37087;SDS011;23002;52.676;6.432;2022-12-01T02:57:36;54.97;;;17.77;;
37087;SDS011;23002;52.676;6.432;2022-12-01T03:00:03;51.10;;;17.15;;
37087;SDS011;23002;52.676;6.432;2022-12-01T03:02:38;57.45;;;17.65;;
37087;SDS011;23002;52.676;6.432;2022-12-01T03:05:30;52.08;;;16.35;;
37087;SDS011;23002;52.676;6.432;2022-12-01T03:10:33;60.70;;;17.67;;
37087;SDS011;23002;52.676;6.432;2022-12-01T03:20:57;51.03;;;17.63;;
37087;SDS011;23002;52.676;6.432;2022-12-01T03:23:28;47.58;;;15.90;;
37087;SDS011;23002;52.676;6.432;2022-12-01T03:25:56;54.53;;;19.02;;
37087;SDS011;23002;52.676;6.432;2022-12-01T03:28:26;57.85;;;18.23;;
37087;SDS011;23002;52.676;6.432;2022-12-01T03:30:57;59.38;;;18.88;;
37087;SDS011;23002;52.676;6.432;2022-12-01T03:33:28;51.83;;;17.15;;
37087;SDS011;23002;52.676;6.432;2022-12-01T03:36:18;49.65;;;16.77;;
37087;SDS011;23002;52.676;6.432;2022-12-01T03:38:47;51.30;;;17.80;;
37087;SDS011;23002;52.676;6.432;2022-12-01T03:41:16;55.65;;;18.48;;
37087;SDS011;23002;52.676;6.432;2022-12-01T03:43:46;54.42;;;16.88;;
37087;SDS011;23002;52.676;6.432;2022-12-01T03:46:32;49.50;;;17.88;;
37087;SDS011;23002;52.676;6.432;2022-12-01T03:49:01;49.67;;;17.52;;
37087;SDS011;23002;52.676;6.432;2022-12-01T03:53:58;53.28;;;18.02;;
37087;SDS011;23002;52.676;6.432;2022-12-01T03:56:27;47.72;;;18.10;;
37087;SDS011;23002;52.676;6.432;2022-12-01T03:58:56;53.38;;;18.60;;
37087;SDS011;23002;52.676;6.432;2022-12-01T04:01:23;56.83;;;17.27;;
37087;SDS011;23002;52.676;6.432;2022-12-01T04:03:52;53.30;;;16.90;;
37087;SDS011;23002;52.676;6.432;2022-12-01T04:06:19;53.50;;;17.98;;
37087;SDS011;23002;52.676;6.432;2022-12-01T04:08:47;56.13;;;19.35;;
37087;SDS011;23002;52.676;6.432;2022-12-01T04:11:14;59.45;;;18.58;;
37087;SDS011;23002;52.676;6.432;2022-12-01T04:13:59;53.75;;;17.80;;
37087;SDS011;23002;52.676;6.432;2022-12-01T04:16:27;55.92;;;18.50;;
37087;SDS011;23002;52.676;6.432;2022-12-01T04:18:54;54.92;;;17.45;;
37087;SDS011;23002;52.676;6.432;2022-12-01T04:21:21;53.60;;;18.85;;
37087;SDS011;23002;52.676;6.432;2022-12-01T04:23:48;55.25;;;17.65;;
37087;SDS011;23002;52.676;6.432;2022-12-01T04:26:28;53.50;;;18.33;;
37087;SDS011;23002;52.676;6.432;2022-12-01T04:29:00;46.17;;;16.90;;
37087;SDS011;23002;52.676;6.432;2022-12-01T04:31:27;51.70;;;17.90;;
37087;SDS011;23002;52.676;6.432;2022-12-01T04:33:55;52.28;;;17.58;;
37087;SDS011;23002;52.676;6.432;2022-12-01T04:36:23;50.10;;;18.40;;
37087;SDS011;23002;52.676;6.432;2022-12-01T04:38:50;53.47;;;16.88;;
37087;SDS011;23002;52.676;6.432;2022-12-01T04:41:17;49.10;;;16.98;;
37087;SDS011;23002;52.676;6.432;2022-12-01T04:43:45;53.63;;;17.77;;
37087;SDS011;23002;52.676;6.432;2022-12-01T04:46:12;49.22;;;18.20;;
37087;SDS011;23002;52.676;6.432;2022-12-01T04:48:40;50.05;;;17.75;;
37087;SDS011;23002;52.676;6.432;2022-12-01T04:51:08;50.83;;;18.20;;
37087;SDS011;23002;52.676;6.432;2022-12-01T04:53:35;55.58;;;19.15;;
37087;SDS011;23002;52.676;6.432;2022-12-01T04:56:02;52.55;;;17.38;;
37087;SDS011;23002;52.676;6.432;2022-12-01T04:58:30;51.90;;;17.10;;
37087;SDS011;23002;52.676;6.432;2022-12-01T05:01:00;55.55;;;19.63;;
37087;SDS011;23002;52.676;6.432;2022-12-01T05:03:28;46.22;;;17.50;;
37087;SDS011;23002;52.676;6.432;2022-12-01T05:06:02;62.90;;;18.70;;
37087;SDS011;23002;52.676;6.432;2022-12-01T05:08:29;50.53;;;17.35;;
37087;SDS011;23002;52.676;6.432;2022-12-01T05:10:56;48.10;;;17.05;;
37087;SDS011;23002;52.676;6.432;2022-12-01T05:13:23;50.40;;;20.45;;
37087;SDS011;23002;52.676;6.432;2022-12-01T05:15:50;56.85;;;16.77;;
37087;SDS011;23002;52.676;6.432;2022-12-01T05:18:18;53.15;;;17.33;;
37087;SDS011;23002;52.676;6.432;2022-12-01T05:20:45;50.65;;;17.50;;
37087;SDS011;23002;52.676;6.432;2022-12-01T05:23:25;56.03;;;17.35;;
37087;SDS011;23002;52.676;6.432;2022-12-01T05:25:52;56.97;;;20.70;;
37087;SDS011;23002;52.676;6.432;2022-12-01T05:28:20;51.15;;;18.00;;
37087;SDS011;23002;52.676;6.432;2022-12-01T05:30:48;53.60;;;15.65;;
37087;SDS011;23002;52.676;6.432;2022-12-01T05:33:15;48.75;;;16.73;;
37087;SDS011;23002;52.676;6.432;2022-12-01T05:35:42;55.92;;;17.33;;
37087;SDS011;23002;52.676;6.432;2022-12-01T05:38:09;50.47;;;18.60;;
37087;SDS011;23002;52.676;6.432;2022-12-01T05:40:37;53.90;;;17.52;;
37087;SDS011;23002;52.676;6.432;2022-12-01T05:43:04;59.65;;;19.95;;
37087;SDS011;23002;52.676;6.432;2022-12-01T05:45:31;52.35;;;18.13;;
37087;SDS011;23002;52.676;6.432;2022-12-01T05:47:59;53.17;;;16.20;;
37087;SDS011;23002;52.676;6.432;2022-12-01T05:50:27;51.70;;;17.88;;
37087;SDS011;23002;52.676;6.432;2022-12-01T05:52:55;53.13;;;19.15;;
37087;SDS011;23002;52.676;6.432;2022-12-01T05:55:22;56.20;;;17.90;;
37087;SDS011;23002;52.676;6.432;2022-12-01T05:57:49;60.70;;;18.05;;
37087;SDS011;23002;52.676;6.432;2022-12-01T06:00:16;55.10;;;16.70;;
37087;SDS011;23002;52.676;6.432;2022-12-01T06:02:43;51.85;;;18.30;;
37087;SDS011;23002;52.676;6.432;2022-12-01T06:05:11;50.33;;;18.13;;
37087;SDS011;23002;52.676;6.432;2022-12-01T06:07:38;56.17;;;18.17;;
37087;SDS011;23002;52.676;6.432;2022-12-01T06:10:06;54.70;;;19.42;;
37087;SDS011;23002;52.676;6.432;2022-12-01T06:12:34;58.33;;;19.63;;
37087;SDS011;23002;52.676;6.432;2022-12-01T06:15:02;61.67;;;18.52;;
37087;SDS011;23002;52.676;6.432;2022-12-01T06:17:29;56.58;;;19.33;;
37087;SDS011;23002;52.676;6.432;2022-12-01T06:20:02;57.10;;;18.05;;
37087;SDS011;23002;52.676;6.432;2022-12-01T06:22:29;52.60;;;18.25;;
37087;SDS011;23002;52.676;6.432;2022-12-01T06:24:56;56.65;;;18.65;;
37087;SDS011;23002;52.676;6.432;2022-12-01T06:27:23;50.38;;;16.90;;
37087;SDS011;23002;52.676;6.432;2022-12-01T06:29:50;53.80;;;19.17;;
37087;SDS011;23002;52.676;6.432;2022-12-01T06:32:18;59.05;;;19.38;;
37087;SDS011;23002;52.676;6.432;2022-12-01T06:34:45;65.18;;;19.73;;
37087;SDS011;23002;52.676;6.432;2022-12-01T06:37:12;61.67;;;18.70;;
37087;SDS011;23002;52.676;6.432;2022-12-01T06:39:41;58.25;;;17.73;;
37087;SDS011;23002;52.676;6.432;2022-12-01T06:42:08;56.72;;;17.83;;
37087;SDS011;23002;52.676;6.432;2022-12-01T06:44:35;57.47;;;21.70;;
37087;SDS011;23002;52.676;6.432;2022-12-01T06:47:03;53.72;;;19.25;;
37087;SDS011;23002;52.676;6.432;2022-12-01T06:49:30;65.95;;;19.98;;
37087;SDS011;23002;52.676;6.432;2022-12-01T06:51:57;62.25;;;18.00;;
37087;SDS011;23002;52.676;6.432;2022-12-01T06:54:26;61.90;;;19.25;;
37087;SDS011;23002;52.676;6.432;2022-12-01T06:56:53;73.53;;;21.65;;
37087;SDS011;23002;52.676;6.432;2022-12-01T06:59:20;55.38;;;17.52;;
37087;SDS011;23002;52.676;6.432;2022-12-01T07:01:49;61.05;;;21.02;;
37087;SDS011;23002;52.676;6.432;2022-12-01T07:04:16;55.13;;;18.27;;
37087;SDS011;23002;52.676;6.432;2022-12-01T07:06:43;64.30;;;20.90;;
37087;SDS011;23002;52.676;6.432;2022-12-01T07:09:10;52.15;;;18.83;;
37087;SDS011;23002;52.676;6.432;2022-12-01T07:11:37;65.00;;;19.98;;
37087;SDS011;23002;52.676;6.432;2022-12-01T07:14:04;55.85;;;20.02;;
37087;SDS011;23002;52.676;6.432;2022-12-01T07:16:31;55.17;;;19.60;;
37087;SDS011;23002;52.676;6.432;2022-12-01T07:18:59;57.22;;;21.13;;
37087;SDS011;23002;52.676;6.432;2022-12-01T07:21:26;62.00;;;19.48;;
37087;SDS011;23002;52.676;6.432;2022-12-01T07:23:53;63.88;;;18.80;;
37087;SDS011;23002;52.676;6.432;2022-12-01T07:26:21;56.25;;;19.17;;
37087;SDS011;23002;52.676;6.432;2022-12-01T07:28:48;54.17;;;19.23;;
37087;SDS011;23002;52.676;6.432;2022-12-01T07:31:16;67.43;;;18.58;;
37087;SDS011;23002;52.676;6.432;2022-12-01T07:33:44;58.78;;;19.30;;
37087;SDS011;23002;52.676;6.432;2022-12-01T07:36:11;59.97;;;20.02;;
37087;SDS011;23002;52.676;6.432;2022-12-01T07:38:38;57.00;;;19.63;;
37087;SDS011;23002;52.676;6.432;2022-12-01T07:41:09;58.08;;;19.05;;
37087;SDS011;23002;52.676;6.432;2022-12-01T07:43:37;60.85;;;19.52;;
37087;SDS011;23002;52.676;6.432;2022-12-01T07:46:11;54.80;;;18.60;;
37087;SDS011;23002;52.676;6.432;2022-12-01T07:48:47;60.78;;;18.80;;
37087;SDS011;23002;52.676;6.432;2022-12-01T07:51:14;56.15;;;17.45;;
37087;SDS011;23002;52.676;6.432;2022-12-01T07:53:44;57.97;;;19.25;;
37087;SDS011;23002;52.676;6.432;2022-12-01T07:56:12;56.17;;;19.13;;
37087;SDS011;23002;52.676;6.432;2022-12-01T07:58:39;55.58;;;18.58;;
37087;SDS011;23002;52.676;6.432;2022-12-01T08:03:34;51.72;;;17.65;;
37087;SDS011;23002;52.676;6.432;2022-12-01T08:06:01;53.67;;;20.15;;
37087;SDS011;23002;52.676;6.432;2022-12-01T08:08:29;59.42;;;19.70;;
37087;SDS011;23002;52.676;6.432;2022-12-01T08:11:00;57.20;;;18.45;;
37087;SDS011;23002;52.676;6.432;2022-12-01T08:13:28;57.10;;;19.13;;
37087;SDS011;23002;52.676;6.432;2022-12-01T08:15:56;62.40;;;21.77;;
37087;SDS011;23002;52.676;6.432;2022-12-01T08:18:23;56.10;;;19.52;;
37087;SDS011;23002;52.676;6.432;2022-12-01T08:20:50;56.78;;;18.98;;
37087;SDS011;23002;52.676;6.432;2022-12-01T08:23:22;67.63;;;19.75;;
37087;SDS011;23002;52.676;6.432;2022-12-01T08:25:49;65.32;;;20.55;;
37087;SDS011;23002;52.676;6.432;2022-12-01T08:28:18;52.00;;;20.27;;
37087;SDS011;23002;52.676;6.432;2022-12-01T08:30:45;65.72;;;20.52;;
37087;SDS011;23002;52.676;6.432;2022-12-01T08:33:13;57.95;;;18.55;;
37087;SDS011;23002;52.676;6.432;2022-12-01T08:35:40;59.60;;;20.83;;
37087;SDS011;23002;52.676;6.432;2022-12-01T08:38:08;58.03;;;18.90;;
37087;SDS011;23002;52.676;6.432;2022-12-01T08:40:35;54.00;;;18.85;;
37087;SDS011;23002;52.676;6.432;2022-12-01T08:43:02;56.80;;;16.98;;
37087;SDS011;23002;52.676;6.432;2022-12-01T08:45:30;54.28;;;18.60;;
37087;SDS011;23002;52.676;6.432;2022-12-01T08:47:57;55.92;;;18.50;;
37087;SDS011;23002;52.676;6.432;2022-12-01T08:50:25;63.83;;;19.63;;
37087;SDS011;23002;52.676;6.432;2022-12-01T08:52:53;59.45;;;17.90;;
37087;SDS011;23002;52.676;6.432;2022-12-01T08:55:20;51.63;;;18.50;;
37087;SDS011;23002;52.676;6.432;2022-12-01T08:57:47;53.55;;;18.02;;
37087;SDS011;23002;52.676;6.432;2022-12-01T09:00:15;62.97;;;20.63;;
37087;SDS011;23002;52.676;6.432;2022-12-01T09:02:42;58.30;;;19.95;;
37087;SDS011;23002;52.676;6.432;2022-12-01T09:05:09;63.20;;;19.85;;
37087;SDS011;23002;52.676;6.432;2022-12-01T09:07:36;60.67;;;20.15;;
37087;SDS011;23002;52.676;6.432;2022-12-01T09:10:04;51.97;;;17.40;;
37087;SDS011;23002;52.676;6.432;2022-12-01T09:12:31;49.60;;;18.13;;
37087;SDS011;23002;52.676;6.432;2022-12-01T09:14:58;59.28;;;18.70;;
37087;SDS011;23002;52.676;6.432;2022-12-01T09:17:25;49.42;;;17.33;;
37087;SDS011;23002;52.676;6.432;2022-12-01T09:19:54;57.90;;;17.92;;
37087;SDS011;23002;52.676;6.432;2022-12-01T09:22:21;55.92;;;18.77;;
37087;SDS011;23002;52.676;6.432;2022-12-01T09:24:48;53.13;;;18.23;;
37087;SDS011;23002;52.676;6.432;2022-12-01T09:27:15;53.97;;;18.30;;
37087;SDS011;23002;52.676;6.432;2022-12-01T09:29:42;54.20;;;17.00;;
37087;SDS011;23002;52.676;6.432;2022-12-01T09:32:10;48.65;;;17.15;;
37087;SDS011;23002;52.676;6.432;2022-12-01T09:34:37;53.80;;;17.33;;
37087;SDS011;23002;52.676;6.432;2022-12-01T09:37:04;47.88;;;17.77;;
37087;SDS011;23002;52.676;6.432;2022-12-01T09:39:32;48.10;;;16.67;;
37087;SDS011;23002;52.676;6.432;2022-12-01T09:42:33;42.50;;;16.10;;
37087;SDS011;23002;52.676;6.432;2022-12-01T09:45:00;45.28;;;15.90;;
37087;SDS011;23002;52.676;6.432;2022-12-01T09:47:30;52.28;;;16.92;;
37087;SDS011;23002;52.676;6.432;2022-12-01T09:52:31;51.63;;;16.70;;
37087;SDS011;23002;52.676;6.432;2022-12-01T09:54:59;45.97;;;17.25;;
37087;SDS011;23002;52.676;6.432;2022-12-01T09:57:31;47.90;;;17.65;;
37087;SDS011;23002;52.676;6.432;2022-12-01T10:00:00;45.78;;;16.35;;
37087;SDS011;23002;52.676;6.432;2022-12-01T10:02:30;46.42;;;16.73;;
37087;SDS011;23002;52.676;6.432;2022-12-01T10:04:59;49.15;;;17.63;;
37087;SDS011;23002;52.676;6.432;2022-12-01T10:07:29;46.90;;;16.27;;
37087;SDS011;23002;52.676;6.432;2022-12-01T10:10:02;44.60;;;18.25;;
37087;SDS011;23002;52.676;6.432;2022-12-01T10:12:31;48.70;;;18.25;;
37087;SDS011;23002;52.676;6.432;2022-12-01T10:15:05;49.47;;;16.75;;
37087;SDS011;23002;52.676;6.432;2022-12-01T10:25:27;48.28;;;16.05;;
37087;SDS011;23002;52.676;6.432;2022-12-01T10:30:35;56.90;;;20.77;;
37087;SDS011;23002;52.676;6.432;2022-12-01T10:35:50;48.65;;;17.13;;
37087;SDS011;23002;52.676;6.432;2022-12-01T10:38:24;44.78;;;16.58;;
37087;SDS011;23002;52.676;6.432;2022-12-01T10:40:53;47.38;;;16.85;;
37087;SDS011;23002;52.676;6.432;2022-12-01T10:43:25;48.90;;;17.60;;
37087;SDS011;23002;52.676;6.432;2022-12-01T10:45:55;44.03;;;16.65;;
37087;SDS011;23002;52.676;6.432;2022-12-01T10:48:23;52.30;;;18.42;;
37087;SDS011;23002;52.676;6.432;2022-12-01T10:50:51;42.65;;;17.50;;
37087;SDS011;23002;52.676;6.432;2022-12-01T10:55:49;48.88;;;15.80;;
37087;SDS011;23002;52.676;6.432;2022-12-01T10:58:17;48.45;;;17.67;;
37087;SDS011;23002;52.676;6.432;2022-12-01T11:00:53;40.70;;;16.40;;
37087;SDS011;23002;52.676;6.432;2022-12-01T11:03:27;48.08;;;16.85;;
37087;SDS011;23002;52.676;6.432;2022-12-01T11:05:57;51.85;;;18.63;;
37087;SDS011;23002;52.676;6.432;2022-12-01T11:08:33;50.92;;;19.15;;
37087;SDS011;23002;52.676;6.432;2022-12-01T11:11:02;53.72;;;18.90;;
37087;SDS011;23002;52.676;6.432;2022-12-01T11:13:30;49.97;;;18.58;;
37087;SDS011;23002;52.676;6.432;2022-12-01T11:16:00;49.05;;;18.95;;
37087;SDS011;23002;52.676;6.432;2022-12-01T11:23:48;45.42;;;16.98;;
37087;SDS011;23002;52.676;6.432;2022-12-01T11:26:17;50.13;;;16.73;;
37087;SDS011;23002;52.676;6.432;2022-12-01T11:28:53;48.50;;;17.30;;
37087;SDS011;23002;52.676;6.432;2022-12-01T11:31:22;44.38;;;16.65;;
37087;SDS011;23002;52.676;6.432;2022-12-01T11:33:51;48.15;;;17.73;;
37087;SDS011;23002;52.676;6.432;2022-12-01T11:36:20;49.70;;;17.83;;
37087;SDS011;23002;52.676;6.432;2022-12-01T11:38:48;41.08;;;16.85;;
37087;SDS011;23002;52.676;6.432;2022-12-01T11:41:30;47.53;;;16.48;;
37087;SDS011;23002;52.676;6.432;2022-12-01T11:43:58;50.08;;;17.50;;
37087;SDS011;23002;52.676;6.432;2022-12-01T11:46:37;48.33;;;18.50;;
37087;SDS011;23002;52.676;6.432;2022-12-01T11:49:25;49.33;;;19.40;;
37087;SDS011;23002;52.676;6.432;2022-12-01T11:51:55;44.85;;;18.30;;
37087;SDS011;23002;52.676;6.432;2022-12-01T11:54:23;44.78;;;16.33;;
37087;SDS011;23002;52.676;6.432;2022-12-01T11:56:51;43.20;;;16.25;;
37087;SDS011;23002;52.676;6.432;2022-12-01T11:59:38;45.35;;;15.70;;
37087;SDS011;23002;52.676;6.432;2022-12-01T12:08:23;46.75;;;15.95;;
37087;SDS011;23002;52.676;6.432;2022-12-01T12:10:38;41.92;;;15.80;;
37087;SDS011;23002;52.676;6.432;2022-12-01T12:15:57;52.85;;;19.17;;
37087;SDS011;23002;52.676;6.432;2022-12-01T12:23:51;49.63;;;18.48;;
37087;SDS011;23002;52.676;6.432;2022-12-01T12:26:30;41.10;;;14.43;;
37087;SDS011;23002;52.676;6.432;2022-12-01T12:37:09;44.00;;;14.85;;
37087;SDS011;23002;52.676;6.432;2022-12-01T12:44:57;43.35;;;16.27;;
37087;SDS011;23002;52.676;6.432;2022-12-01T12:47:35;47.03;;;17.02;;
37087;SDS011;23002;52.676;6.432;2022-12-01T12:52:32;38.53;;;14.18;;
37087;SDS011;23002;52.676;6.432;2022-12-01T12:55:10;36.38;;;14.13;;
37087;SDS011;23002;52.676;6.432;2022-12-01T12:57:38;37.20;;;14.77;;
37087;SDS011;23002;52.676;6.432;2022-12-01T13:00:12;40.20;;;14.30;;
37087;SDS011;23002;52.676;6.432;2022-12-01T13:02:42;35.60;;;14.98;;
37087;SDS011;23002;52.676;6.432;2022-12-01T13:05:20;36.08;;;14.95;;
37087;SDS011;23002;52.676;6.432;2022-12-01T13:07:54;40.75;;;13.95;;
37087;SDS011;23002;52.676;6.432;2022-12-01T13:10:41;33.63;;;13.55;;
37087;SDS011;23002;52.676;6.432;2022-12-01T13:13:21;36.13;;;14.07;;
37087;SDS011;23002;52.676;6.432;2022-12-01T13:15:49;38.50;;;14.20;;
37087;SDS011;23002;52.676;6.432;2022-12-01T13:20:53;33.65;;;12.43;;
37087;SDS011;23002;52.676;6.432;2022-12-01T13:23:21;36.13;;;12.80;;
37087;SDS011;23002;52.676;6.432;2022-12-01T13:25:50;38.38;;;14.05;;
37087;SDS011;23002;52.676;6.432;2022-12-01T13:28:23;37.05;;;13.80;;
37087;SDS011;23002;52.676;6.432;2022-12-01T13:30:59;37.33;;;15.02;;
37087;SDS011;23002;52.676;6.432;2022-12-01T13:33:27;33.42;;;13.32;;
37087;SDS011;23002;52.676;6.432;2022-12-01T13:35:55;38.13;;;14.20;;
37087;SDS011;23002;52.676;6.432;2022-12-01T13:38:42;36.22;;;14.23;;
37087;SDS011;23002;52.676;6.432;2022-12-01T13:43:53;32.08;;;12.75;;
37087;SDS011;23002;52.676;6.432;2022-12-01T13:46:27;36.28;;;14.85;;
37087;SDS011;23002;52.676;6.432;2022-12-01T13:48:56;38.78;;;13.52;;
37087;SDS011;23002;52.676;6.432;2022-12-01T13:51:24;30.10;;;13.10;;
37087;SDS011;23002;52.676;6.432;2022-12-01T13:53:54;30.73;;;12.57;;
37087;SDS011;23002;52.676;6.432;2022-12-01T13:58:49;35.88;;;12.55;;
37087;SDS011;23002;52.676;6.432;2022-12-01T14:06:28;33.72;;;12.50;;
37087;SDS011;23002;52.676;6.432;2022-12-01T14:09:13;35.28;;;12.55;;
37087;SDS011;23002;52.676;6.432;2022-12-01T14:11:53;38.28;;;14.00;;
37087;SDS011;23002;52.676;6.432;2022-12-01T14:14:21;38.05;;;13.93;;
37087;SDS011;23002;52.676;6.432;2022-12-01T14:22:04;41.80;;;13.32;;
37087;SDS011;23002;52.676;6.432;2022-12-01T14:24:33;37.47;;;12.77;;
37087;SDS011;23002;52.676;6.432;2022-12-01T14:27:02;39.70;;;13.73;;
37087;SDS011;23002;52.676;6.432;2022-12-01T14:34:35;34.88;;;11.95;;
37087;SDS011;23002;52.676;6.432;2022-12-01T14:39:35;35.85;;;12.68;;
37087;SDS011;23002;52.676;6.432;2022-12-01T14:44:40;31.70;;;12.45;;
37087;SDS011;23002;52.676;6.432;2022-12-01T14:47:16;31.38;;;12.18;;
37087;SDS011;23002;52.676;6.432;2022-12-01T14:49:53;36.72;;;13.45;;
37087;SDS011;23002;52.676;6.432;2022-12-01T14:54:56;34.05;;;13.88;;
37087;SDS011;23002;52.676;6.432;2022-12-01T14:57:27;30.20;;;13.48;;
37087;SDS011;23002;52.676;6.432;2022-12-01T15:00:03;32.50;;;13.23;;
37087;SDS011;23002;52.676;6.432;2022-12-01T15:02:30;35.58;;;13.73;;
37087;SDS011;23002;52.676;6.432;2022-12-01T15:07:49;30.77;;;12.30;;
37087;SDS011;23002;52.676;6.432;2022-12-01T15:10:21;35.65;;;13.45;;
37087;SDS011;23002;52.676;6.432;2022-12-01T15:12:48;31.42;;;12.02;;
37087;SDS011;23002;52.676;6.432;2022-12-01T15:15:17;36.75;;;14.23;;
37087;SDS011;23002;52.676;6.432;2022-12-01T15:17:49;30.48;;;12.18;;
37087;SDS011;23002;52.676;6.432;2022-12-01T15:20:31;29.10;;;12.55;;
37087;SDS011;23002;52.676;6.432;2022-12-01T15:22:59;36.42;;;12.93;;
37087;SDS011;23002;52.676;6.432;2022-12-01T15:25:28;33.97;;;14.13;;
37087;SDS011;23002;52.676;6.432;2022-12-01T15:28:03;35.92;;;13.35;;
37087;SDS011;23002;52.676;6.432;2022-12-01T15:30:30;34.88;;;12.77;;
37087;SDS011;23002;52.676;6.432;2022-12-01T15:32:58;31.27;;;12.52;;
37087;SDS011;23002;52.676;6.432;2022-12-01T15:35:25;32.13;;;12.40;;
37087;SDS011;23002;52.676;6.432;2022-12-01T15:37:52;36.65;;;13.93;;
37087;SDS011;23002;52.676;6.432;2022-12-01T15:40:21;35.67;;;14.30;;
37087;SDS011;23002;52.676;6.432;2022-12-01T15:43:19;30.73;;;12.75;;
37087;SDS011;23002;52.676;6.432;2022-12-01T15:45:53;27.08;;;11.93;;
37087;SDS011;23002;52.676;6.432;2022-12-01T15:48:39;34.55;;;12.68;;
37087;SDS011;23002;52.676;6.432;2022-12-01T15:51:08;32.63;;;13.88;;
37087;SDS011;23002;52.676;6.432;2022-12-01T15:53:38;36.25;;;14.00;;
37087;SDS011;23002;52.676;6.432;2022-12-01T15:56:08;36.05;;;12.98;;
37087;SDS011;23002;52.676;6.432;2022-12-01T15:58:43;33.72;;;14.00;;
37087;SDS011;23002;52.676;6.432;2022-12-01T16:01:11;35.78;;;13.48;;
37087;SDS011;23002;52.676;6.432;2022-12-01T16:06:36;33.53;;;12.80;;
37087;SDS011;23002;52.676;6.432;2022-12-01T16:09:05;34.33;;;13.77;;
37087;SDS011;23002;52.676;6.432;2022-12-01T16:11:33;31.40;;;13.35;;
37087;SDS011;23002;52.676;6.432;2022-12-01T16:16:43;41.45;;;18.08;;
37087;SDS011;23002;52.676;6.432;2022-12-01T16:21:48;34.65;;;14.32;;
37087;SDS011;23002;52.676;6.432;2022-12-01T16:24:17;32.88;;;13.15;;
37087;SDS011;23002;52.676;6.432;2022-12-01T16:26:56;33.80;;;13.18;;
37087;SDS011;23002;52.676;6.432;2022-12-01T16:29:25;28.58;;;13.55;;
37087;SDS011;23002;52.676;6.432;2022-12-01T16:31:52;34.13;;;14.57;;
37087;SDS011;23002;52.676;6.432;2022-12-01T16:34:41;28.83;;;13.40;;
37087;SDS011;23002;52.676;6.432;2022-12-01T16:37:12;36.80;;;13.23;;
37087;SDS011;23002;52.676;6.432;2022-12-01T16:39:39;30.45;;;13.77;;
37087;SDS011;23002;52.676;6.432;2022-12-01T16:42:10;35.05;;;14.38;;
37087;SDS011;23002;52.676;6.432;2022-12-01T16:44:37;32.83;;;14.27;;
37087;SDS011;23002;52.676;6.432;2022-12-01T16:47:09;38.55;;;15.32;;
37087;SDS011;23002;52.676;6.432;2022-12-01T16:49:37;42.72;;;15.95;;
37087;SDS011;23002;52.676;6.432;2022-12-01T16:52:05;34.85;;;13.60;;
37087;SDS011;23002;52.676;6.432;2022-12-01T16:54:52;39.92;;;14.95;;
37087;SDS011;23002;52.676;6.432;2022-12-01T16:57:19;43.97;;;15.45;;